Disclaimer

Please do not use the information listed here in-flight or in-navigation, as they are not provided to us by the airports but are provided by volunteers, so they might be outdated.

Search


Regions


Airport information page

Radio informations:
KERKIRA TWR - 120.85 MHz
KERKIRA APP - 118.075 MHz
KERKIRA RDO - 5637 MHz

Airport informations:
Latitude: 39° 36' 07.00" N
Longitude: 019° 54' 42.00" E
Elevation: 6 feet - 2 meters
Operating hours: 24 hour operations
Operating agency: Civil government, landing fees and diplomatic clearance may be required
Timezone: UTC+2(+3DT) - Last Sunday in March to last Sunday in October
Fuel: Jet A1, without icing nhibitor.

100/130 MIL Spec, low lead, aviation gasoline (BLUE)

Runway information:
17/35 - 7792 x 148 feet< - >2375 x 45 meters

Recent METARs:
LGKR 180850Z 10010KT 9000 -RA FEW018 BKN025 OVC080 12/09 Q1010 TEMPO 5000 RA
LGKR 180920Z 10009KT 9000 -RA FEW018 BKN025 OVC080 12/09 Q1010 TEMPO 5000 RA
LGKR 180950Z 07009KT 8000 -RA FEW018 BKN025 OVC080 12/10 Q1009 TEMPO 5000 RA

Airport on the map: